Terminal Aerodrome Forecast
Issued by NWS

Home | Current Version | Previous Version | Text Only | Print | Product List | Glossary On
Versions: 1 2 3 4 5 6 7 8 9 10 11 12 13 14 15 16 17 18 19 20 21
000
FTUS43 KGRR 292000 AAA
TAFMKG
TAF AMD
KMKG 292000Z 2920/3018 23006KT P6SM SCT025
     FM300100 00000KT P6SM SCT035 BKN200
     FM300900 00000KT 4SM BR SCT035 BKN200
     FM301500 21007KT P6SM BKN100
     FM301600 22008KT P6SM VCTS SCT050CB BKN100=

USA.gov is the U.S. government's official web portal to all federal, state and local government web resources and services.